Time;durP1;ratioP1;P1;durP2;ratioP2;P2;SDS_P1;SDS_P2;PMS_P1;PMS_P2;Temp;Humidity;BMP_temperature;BMP_pressure;BME280_temperature;BME280_humidity;BME280_pressure;Samples;Min_cycle;Max_cycle;Signal;HPM_P1;HPM_P2
2022/06/04 00:01:36;;;;;;;10.90;5.45;;;14.00;99.90;;;;;;5013737;28;20111;-66
2022/06/04 00:04:02;;;;;;;13.85;6.38;;;13.90;99.90;;;;;;5020940;28;20100;-66
2022/06/04 00:06:28;;;;;;;10.10;5.63;;;13.90;99.90;;;;;;5015659;28;20034;-66
2022/06/04 00:08:53;;;;;;;13.25;5.75;;;13.90;99.90;;;;;;5013477;28;20042;-66
2022/06/04 00:16:47;;;;;;;12.07;5.55;;;13.80;99.90;;;;;;5019770;28;20038;-66
2022/06/04 00:19:13;;;;;;;11.98;5.78;;;13.80;99.90;;;;;;5020106;28;20048;-66
2022/06/04 00:21:39;;;;;;;11.63;5.53;;;13.80;99.90;;;;;;5026276;28;20045;-66
2022/06/04 00:24:06;;;;;;;11.90;5.10;;;13.70;99.90;;;;;;5013640;28;20084;-66
2022/06/04 00:26:32;;;;;;;9.98;5.63;;;13.70;99.90;;;;;;5020520;28;20063;-66
2022/06/04 00:28:57;;;;;;;12.05;5.47;;;13.70;99.90;;;;;;5022097;28;20125;-66
2022/06/04 00:31:23;;;;;;;12.77;5.85;;;13.60;99.90;;;;;;4998085;28;20045;-66
2022/06/04 00:33:49;;;;;;;9.40;5.40;;;13.60;99.90;;;;;;5017284;28;20400;-66
2022/06/04 00:36:15;;;;;;;12.30;5.43;;;13.50;99.90;;;;;;5020358;28;20569;-66
2022/06/04 00:38:40;;;;;;;12.02;5.57;;;13.50;99.90;;;;;;5029028;28;20040;-66
2022/06/04 00:41:24;;;;;;;13.85;5.70;;;13.50;99.90;;;;;;5024405;28;20108;-66
2022/06/04 00:44:08;;;;;;;11.57;5.20;;;13.50;99.90;;;;;;5015402;28;20115;-66
2022/06/04 00:46:39;;;;;;;11.95;5.50;;;13.40;99.90;;;;;;4996607;28;20046;-66
2022/06/04 00:49:11;;;;;;;9.55;5.22;;;13.40;99.90;;;;;;5004417;28;20064;-66
2022/06/04 00:51:38;;;;;;;12.60;6.23;;;13.40;99.90;;;;;;5008419;28;20161;-66
2022/06/04 00:54:04;;;;;;;11.82;5.50;;;13.40;99.90;;;;;;5016513;28;20377;-66
2022/06/04 00:56:48;;;;;;;11.80;5.50;;;13.40;99.90;;;;;;4998610;28;20046;-67
2022/06/04 00:59:39;;;;;;;13.32;5.53;;;13.40;99.90;;;;;;5029849;28;20034;-66
2022/06/04 01:02:26;;;;;;;12.52;5.45;;;13.40;99.90;;;;;;5008462;28;20050;-67
2022/06/04 01:05:07;;;;;;;13.48;6.13;;;13.30;99.90;;;;;;5028454;28;20029;-66
2022/06/04 01:08:04;;;;;;;11.63;6.22;;;13.30;99.90;;;;;;5005555;28;20037;-67
2022/06/04 01:10:41;;;;;;;13.07;5.80;;;13.30;99.90;;;;;;5010655;28;20262;-66
2022/06/04 01:13:24;;;;;;;10.98;6.10;;;13.30;99.90;;;;;;4997438;28;20136;-67
2022/06/04 01:15:59;;;;;;;13.05;6.50;;;13.30;99.90;;;;;;5003320;28;20129;-67
2022/06/04 01:18:35;;;;;;;13.57;6.13;;;13.20;99.90;;;;;;5014541;28;20034;-66
2022/06/04 01:21:23;;;;;;;13.75;6.88;;;13.20;99.90;;;;;;5016796;28;20095;-67
2022/06/04 01:24:25;;;;;;;15.75;6.45;;;13.20;99.90;;;;;;5013237;28;20049;-67
2022/06/04 01:27:06;;;;;;;11.80;6.38;;;13.20;99.90;;;;;;5000330;28;20077;-67
2022/06/04 01:29:46;;;;;;;9.45;6.25;;;13.20;99.90;;;;;;5007325;28;20100;-67
2022/06/04 01:32:31;;;;;;;11.93;6.53;;;13.20;99.90;;;;;;5024491;28;20095;-66
2022/06/04 01:35:01;;;;;;;13.55;6.70;;;13.10;99.90;;;;;;5020647;28;20079;-66
2022/06/04 01:37:34;;;;;;;12.05;6.53;;;13.10;99.90;;;;;;5025820;28;20136;-66
2022/06/04 01:42:49;;;;;;;11.60;6.32;;;13.10;99.90;;;;;;5012106;28;20053;-66
2022/06/04 01:45:19;;;;;;;9.57;6.13;;;13.10;99.90;;;;;;5003131;28;20040;-66
2022/06/04 01:47:47;;;;;;;14.20;6.80;;;13.10;99.90;;;;;;5008057;28;20034;-66
2022/06/04 01:50:17;;;;;;;12.88;6.30;;;13.00;99.90;;;;;;5010977;28;20038;-66
2022/06/04 01:52:43;;;;;;;10.35;6.28;;;13.00;99.90;;;;;;5000149;28;20091;-66
2022/06/04 01:55:12;;;;;;;12.05;6.78;;;13.00;99.90;;;;;;5016249;28;20061;-66
2022/06/04 01:57:51;;;;;;;15.57;6.78;;;12.90;99.90;;;;;;5010001;28;20126;-66
2022/06/04 02:00:25;;;;;;;10.02;6.35;;;12.90;99.90;;;;;;5010164;28;20037;-66
2022/06/04 02:03:03;;;;;;;14.38;7.65;;;12.90;99.90;;;;;;5000132;28;20492;-66
2022/06/04 02:05:48;;;;;;;9.93;6.45;;;12.90;99.90;;;;;;5011658;28;20034;-66
2022/06/04 02:08:18;;;;;;;13.00;6.80;;;12.90;99.90;;;;;;5007099;28;20072;-66
2022/06/04 02:10:53;;;;;;;14.32;7.43;;;12.90;99.90;;;;;;4990808;28;20567;-66
2022/06/04 02:13:19;;;;;;;12.05;7.05;;;12.90;99.90;;;;;;5020944;28;20042;-66
2022/06/04 02:15:58;;;;;;;11.43;6.95;;;12.80;99.90;;;;;;5018749;28;20041;-66
2022/06/04 02:18:24;;;;;;;14.45;7.50;;;12.80;99.90;;;;;;5010981;28;20367;-66
2022/06/04 02:20:50;;;;;;;13.38;7.90;;;12.80;99.90;;;;;;5007034;28;20054;-66
2022/06/04 02:23:16;;;;;;;11.85;7.32;;;12.80;99.90;;;;;;5029102;28;20036;-66
2022/06/04 02:25:42;;;;;;;12.63;7.15;;;12.80;99.90;;;;;;5024735;28;20056;-66
2022/06/04 02:28:09;;;;;;;17.70;7.78;;;12.70;99.90;;;;;;5012337;28;20026;-66
2022/06/04 02:31:10;;;;;;;16.25;7.88;;;12.70;99.90;;;;;;5010179;28;20196;-66
2022/06/04 02:34:10;;;;;;;13.00;7.38;;;12.70;99.90;;;;;;4968925;28;20100;-66
2022/06/04 02:36:57;;;;;;;15.95;7.70;;;12.70;99.90;;;;;;5013830;28;20084;-66
2022/06/04 02:39:41;;;;;;;16.17;7.88;;;12.70;99.90;;;;;;4998621;28;20042;-66
2022/06/04 02:42:26;;;;;;;12.35;7.68;;;12.70;99.90;;;;;;5026708;28;20041;-66
2022/06/04 02:45:00;;;;;;;13.65;8.15;;;12.70;99.90;;;;;;5016140;28;20056;-66
2022/06/04 02:47:37;;;;;;;16.27;7.80;;;12.70;99.90;;;;;;4994193;28;20046;-66
2022/06/04 02:50:11;;;;;;;15.05;7.55;;;12.70;99.90;;;;;;5005755;28;20052;-66
2022/06/04 02:52:37;;;;;;;12.40;7.60;;;12.60;99.90;;;;;;5017325;28;20057;-66
2022/06/04 02:55:16;;;;;;;17.35;8.68;;;12.60;99.90;;;;;;5004465;28;20503;-66
2022/06/04 02:57:46;;;;;;;13.52;8.18;;;12.60;99.90;;;;;;5011756;28;20061;-67
2022/06/04 03:00:15;;;;;;;18.20;8.20;;;12.60;99.90;;;;;;4989551;28;20034;-68
2022/06/04 03:02:41;;;;;;;15.40;8.45;;;12.50;99.90;;;;;;5007457;28;20049;-67
2022/06/04 03:05:11;;;;;;;15.52;8.40;;;12.50;99.90;;;;;;5002910;28;20397;-67
2022/06/04 03:07:39;;;;;;;15.68;7.45;;;12.50;99.90;;;;;;5013864;28;20586;-68
2022/06/04 03:10:11;;;;;;;14.70;8.60;;;12.50;99.90;;;;;;5014910;28;20034;-67
2022/06/04 03:12:37;;;;;;;13.10;7.82;;;12.50;99.90;;;;;;5004371;28;20111;-65
2022/06/04 03:15:03;;;;;;;13.80;8.30;;;12.50;99.90;;;;;;4993570;28;20034;-67
2022/06/04 03:17:29;;;;;;;12.90;8.00;;;12.40;99.90;;;;;;5015781;28;20041;-68
2022/06/04 03:19:55;;;;;;;13.73;8.63;;;12.40;99.90;;;;;;5013720;28;20129;-67
2022/06/04 03:22:20;;;;;;;16.55;8.77;;;12.40;99.90;;;;;;4995764;28;20030;-67
2022/06/04 03:24:46;;;;;;;15.32;8.70;;;12.40;99.90;;;;;;4997034;28;20085;-67
2022/06/04 03:27:12;;;;;;;19.17;8.30;;;12.40;99.90;;;;;;5014494;28;20511;-67
2022/06/04 03:29:37;;;;;;;16.02;8.63;;;12.40;99.90;;;;;;5019996;28;20048;-67
2022/06/04 03:32:03;;;;;;;14.23;8.43;;;12.40;99.90;;;;;;5011204;28;20042;-67
2022/06/04 03:34:29;;;;;;;14.25;8.10;;;12.40;99.90;;;;;;5011015;28;20045;-68
2022/06/04 03:36:55;;;;;;;17.30;9.32;;;12.40;99.90;;;;;;4993560;28;20477;-67
2022/06/04 03:39:20;;;;;;;16.83;8.73;;;12.40;99.90;;;;;;4999109;28;20484;-67
2022/06/04 03:41:46;;;;;;;13.18;8.57;;;12.40;99.90;;;;;;5017808;28;20042;-65
2022/06/04 03:44:11;;;;;;;18.55;8.95;;;12.30;99.90;;;;;;4997837;28;20041;-68
2022/06/04 03:46:37;;;;;;;16.55;8.18;;;12.40;99.90;;;;;;5016651;28;20052;-67
2022/06/04 03:49:03;;;;;;;18.50;8.80;;;12.30;99.90;;;;;;5018770;28;20033;-67
2022/06/04 03:51:29;;;;;;;18.08;9.55;;;12.30;99.90;;;;;;5021349;28;20264;-67
2022/06/04 03:53:55;;;;;;;16.33;8.75;;;12.30;99.90;;;;;;5017401;28;20034;-67
2022/06/04 03:56:22;;;;;;;15.45;8.13;;;12.30;99.90;;;;;;5011548;28;20397;-67
2022/06/04 03:58:47;;;;;;;14.48;8.77;;;12.30;99.90;;;;;;5000309;28;20041;-67
2022/06/04 04:01:16;;;;;;;16.98;8.90;;;12.30;99.90;;;;;;5016392;28;20041;-67
2022/06/04 04:03:42;;;;;;;13.05;9.18;;;12.20;99.90;;;;;;5000360;28;20042;-67
2022/06/04 04:06:19;;;;;;;17.85;8.88;;;12.20;99.90;;;;;;4994516;28;20408;-68
2022/06/04 04:08:45;;;;;;;17.48;9.13;;;12.20;99.90;;;;;;5013244;28;20511;-67
2022/06/04 04:11:17;;;;;;;15.13;9.20;;;12.20;99.90;;;;;;5022416;28;20077;-67
2022/06/04 04:13:44;;;;;;;15.88;9.18;;;12.20;99.90;;;;;;5015019;28;20038;-67
2022/06/04 04:16:11;;;;;;;15.90;9.20;;;12.20;99.90;;;;;;5017243;28;20030;-67
2022/06/04 04:18:37;;;;;;;16.58;8.80;;;12.00;99.90;;;;;;5011859;28;20117;-68
2022/06/04 04:21:12;;;;;;;15.05;8.80;;;12.20;99.90;;;;;;5023355;28;20033;-66
2022/06/04 04:23:38;;;;;;;15.70;8.77;;;12.20;99.90;;;;;;5001321;28;20051;-66
2022/06/04 04:26:05;;;;;;;18.45;8.95;;;12.20;99.90;;;;;;5020375;28;20030;-66
2022/06/04 04:28:32;;;;;;;16.55;8.65;;;12.20;99.90;;;;;;4984893;28;20061;-67
2022/06/04 04:30:57;;;;;;;15.82;8.32;;;12.20;99.90;;;;;;5000232;28;20080;-65
2022/06/04 04:33:23;;;;;;;15.15;8.18;;;12.30;99.90;;;;;;5017473;28;20448;-67
2022/06/04 04:35:49;;;;;;;15.82;8.93;;;12.30;99.90;;;;;;5016372;28;20496;-67
2022/06/04 04:38:18;;;;;;;12.00;7.85;;;12.30;99.90;;;;;;4996021;28;20073;-67
2022/06/04 04:40:45;;;;;;;15.13;8.15;;;12.30;99.90;;;;;;4982014;28;20497;-67
2022/06/04 04:43:11;;;;;;;16.13;7.72;;;12.30;99.90;;;;;;4997315;28;20053;-67
2022/06/04 04:45:37;;;;;;;10.57;7.60;;;12.30;99.90;;;;;;5011172;28;20064;-68
2022/06/04 04:48:03;;;;;;;13.82;7.97;;;12.30;99.90;;;;;;5018156;28;20527;-67
2022/06/04 04:50:34;;;;;;;15.35;7.10;;;12.40;99.90;;;;;;5000584;28;20049;-67
2022/06/04 04:53:02;;;;;;;13.50;7.55;;;12.40;99.90;;;;;;5026757;28;20038;-65
2022/06/04 04:55:28;;;;;;;13.63;7.97;;;12.40;99.90;;;;;;5018057;28;20530;-66
2022/06/04 04:57:55;;;;;;;13.75;8.20;;;12.50;99.90;;;;;;5024105;28;20392;-66
2022/06/04 05:00:20;;;;;;;13.70;7.50;;;12.50;99.90;;;;;;5030014;28;20029;-67
2022/06/04 05:02:46;;;;;;;13.80;7.45;;;12.50;99.90;;;;;;5002977;28;20048;-66
2022/06/04 05:05:13;;;;;;;12.82;8.00;;;12.50;99.90;;;;;;5000722;28;20455;-68
2022/06/04 05:07:40;;;;;;;13.35;7.75;;;12.60;99.90;;;;;;4990947;28;20072;-66
2022/06/04 05:10:07;;;;;;;15.30;8.55;;;12.60;99.90;;;;;;5023912;28;20038;-68
2022/06/04 05:12:32;;;;;;;14.10;7.25;;;12.60;99.90;;;;;;5007910;28;20538;-67
2022/06/04 05:14:58;;;;;;;12.38;6.93;;;12.60;99.90;;;;;;5024834;28;20069;-67
2022/06/04 05:17:23;;;;;;;15.23;7.45;;;12.60;99.90;;;;;;5013771;28;20037;-67
2022/06/04 05:19:49;;;;;;;11.68;6.95;;;12.70;99.90;;;;;;5007874;28;20105;-67
2022/06/04 05:22:15;;;;;;;11.82;6.65;;;12.70;99.90;;;;;;5015528;28;20049;-67
2022/06/04 05:24:43;;;;;;;12.20;7.18;;;12.70;99.90;;;;;;5016157;28;20072;-67
2022/06/04 05:27:09;;;;;;;12.07;6.10;;;12.70;99.90;;;;;;5004015;28;20636;-67
2022/06/04 05:29:37;;;;;;;10.32;6.20;;;12.70;99.90;;;;;;5017624;28;20073;-67
2022/06/04 05:32:04;;;;;;;12.02;6.07;;;12.70;99.90;;;;;;4996602;28;20455;-67
2022/06/04 05:34:31;;;;;;;9.63;5.72;;;12.80;99.90;;;;;;4995927;28;20046;-67
2022/06/04 05:36:58;;;;;;;13.07;6.38;;;12.80;99.90;;;;;;5021756;28;20443;-66
2022/06/04 05:39:24;;;;;;;9.05;5.88;;;12.80;99.90;;;;;;5018010;28;20034;-67
2022/06/04 05:41:51;;;;;;;11.38;6.03;;;12.70;99.90;;;;;;5004766;28;20042;-68
2022/06/04 05:44:17;;;;;;;11.50;6.07;;;12.80;99.90;;;;;;5021813;28;20446;-68
2022/06/04 05:46:44;;;;;;;8.98;6.00;;;12.90;99.90;;;;;;5032404;28;20034;-68
2022/06/04 05:49:11;;;;;;;9.52;5.70;;;12.90;99.90;;;;;;5023338;28;20034;-68
2022/06/04 05:51:39;;;;;;;11.13;5.90;;;12.90;99.90;;;;;;5001141;28;20108;-68
2022/06/04 05:54:05;;;;;;;14.27;6.20;;;12.90;99.90;;;;;;5027393;28;20030;-68
2022/06/04 05:56:33;;;;;;;10.93;5.57;;;13.00;99.90;;;;;;5021758;28;20399;-68
2022/06/04 05:59:01;;;;;;;8.20;5.68;;;13.00;99.90;;;;;;5013630;28;20041;-67
2022/06/04 06:01:29;;;;;;;11.25;5.75;;;13.10;99.90;;;;;;5006833;28;20049;-66
2022/06/04 06:03:55;;;;;;;9.85;5.63;;;13.10;99.90;;;;;;5015975;28;20045;-66
2022/06/04 06:06:28;;;;;;;9.50;5.57;;;13.20;99.90;;;;;;5020299;28;20034;-67
2022/06/04 06:08:54;;;;;;;;;;;13.20;99.90;;;;;;5012795;28;20044;-67
2022/06/04 06:11:20;;;;;;;9.65;5.43;;;13.20;99.90;;;;;;5027417;28;20012;-67
2022/06/04 06:13:48;;;;;;;8.65;5.80;;;13.20;99.90;;;;;;5027416;28;20092;-66
2022/06/04 06:16:17;;;;;;;9.52;5.70;;;13.20;99.90;;;;;;5012473;28;20038;-66
2022/06/04 06:18:42;;;;;;;9.10;5.28;;;13.20;99.90;;;;;;5007362;28;20045;-66
2022/06/04 06:21:11;;;;;;;8.38;5.60;;;13.30;99.90;;;;;;5027260;28;20033;-66
2022/06/04 06:23:37;;;;;;;9.65;5.28;;;13.30;99.90;;;;;;5020411;28;20054;-66
2022/06/04 06:26:12;;;;;;;10.07;6.13;;;13.30;99.90;;;;;;5021561;28;20066;-66
2022/06/04 06:28:39;;;;;;;9.07;5.68;;;13.40;99.90;;;;;;5023449;28;20419;-66
2022/06/04 06:31:05;;;;;;;11.55;5.13;;;13.40;99.90;;;;;;5021227;28;20037;-66
2022/06/04 06:33:31;;;;;;;9.80;5.60;;;13.40;99.90;;;;;;4994867;28;20392;-66
2022/06/04 06:35:59;;;;;;;8.77;5.40;;;13.40;99.90;;;;;;5013435;28;20042;-66
2022/06/04 06:38:25;;;;;;;10.20;5.30;;;13.40;99.90;;;;;;5028587;28;20087;-66
2022/06/04 06:40:52;;;;;;;9.35;5.15;;;13.40;99.90;;;;;;4998357;28;20037;-66
2022/06/04 06:43:18;;;;;;;8.13;5.20;;;13.50;99.90;;;;;;5012231;28;20041;-66
2022/06/04 06:45:44;;;;;;;7.75;5.10;;;13.50;99.90;;;;;;5018866;28;20040;-66
2022/06/04 06:48:10;;;;;;;9.15;5.25;;;13.50;99.90;;;;;;5013161;28;20045;-66
2022/06/04 06:50:37;;;;;;;7.70;5.05;;;13.50;99.90;;;;;;5021875;28;20041;-66
2022/06/04 06:53:03;;;;;;;8.93;4.80;;;13.60;99.90;;;;;;5016071;28;20046;-66
2022/06/04 06:55:28;;;;;;;8.85;5.32;;;13.60;99.90;;;;;;4994256;28;20037;-66
2022/06/04 06:57:54;;;;;;;9.57;5.07;;;13.70;99.90;;;;;;5001755;28;20038;-66
2022/06/04 07:00:20;;;;;;;9.77;5.50;;;13.60;99.90;;;;;;5002134;28;20041;-66
2022/06/04 07:02:45;;;;;;;9.63;5.35;;;13.70;99.90;;;;;;5014172;28;20376;-66
2022/06/04 07:05:11;;;;;;;10.02;5.25;;;13.70;99.90;;;;;;5018093;28;20041;-66
2022/06/04 07:07:37;;;;;;;8.63;5.22;;;13.70;99.90;;;;;;5003580;28;20052;-66
2022/06/04 07:10:04;;;;;;;10.30;4.80;;;13.70;99.90;;;;;;5029951;28;20030;-66
2022/06/04 07:12:31;;;;;;;10.35;4.93;;;13.80;99.90;;;;;;5013635;28;20038;-66
2022/06/04 07:14:59;;;;;;;7.05;4.60;;;13.80;99.90;;;;;;5022663;28;20095;-66
2022/06/04 07:17:25;;;;;;;6.47;4.13;;;13.90;99.90;;;;;;5021906;28;20041;-65
2022/06/04 07:19:50;;;;;;;11.73;5.28;;;13.90;99.90;;;;;;5018466;28;20042;-66
2022/06/04 07:22:16;;;;;;;8.60;4.60;;;13.90;99.90;;;;;;5014351;28;20095;-67
2022/06/04 07:24:42;;;;;;;7.20;4.47;;;14.00;99.90;;;;;;5006418;28;20037;-66
2022/06/04 07:27:09;;;;;;;7.85;4.88;;;14.00;99.90;;;;;;5016660;28;20519;-66
2022/06/04 07:29:35;;;;;;;8.32;4.78;;;14.10;99.90;;;;;;4998622;28;20037;-66
2022/06/04 07:32:02;;;;;;;6.80;4.40;;;14.10;99.90;;;;;;5031156;28;20124;-66
2022/06/04 07:34:28;;;;;;;6.60;4.20;;;14.10;99.90;;;;;;4987041;28;20045;-69
2022/06/04 07:36:53;;;;;;;8.55;4.72;;;14.10;99.90;;;;;;5021602;28;20121;-65
2022/06/04 07:39:20;;;;;;;8.80;4.57;;;14.20;99.90;;;;;;4992808;28;20070;-66
2022/06/04 07:41:52;;;;;;;7.97;4.65;;;14.20;99.90;;;;;;4993965;28;20054;-66
2022/06/04 07:44:18;;;;;;;8.75;4.80;;;14.30;99.90;;;;;;5004368;28;20041;-66
2022/06/04 07:46:45;;;;;;;8.02;4.70;;;14.30;99.90;;;;;;5015243;28;20069;-66
2022/06/04 07:49:12;;;;;;;11.00;5.18;;;14.40;99.90;;;;;;5019999;28;20493;-66
2022/06/04 07:51:39;;;;;;;9.02;5.10;;;14.50;99.90;;;;;;5024531;28;20115;-66
2022/06/04 07:54:08;;;;;;;8.45;4.90;;;14.60;99.90;;;;;;4993586;28;20096;-66
2022/06/04 07:56:35;;;;;;;8.57;4.45;;;14.70;99.90;;;;;;5011164;28;20057;-66
2022/06/04 07:59:01;;;;;;;8.48;4.40;;;14.70;99.90;;;;;;5012927;28;20033;-66
2022/06/04 08:01:28;;;;;;;9.02;4.40;;;14.80;99.90;;;;;;5001919;28;20122;-66
2022/06/04 08:03:54;;;;;;;8.45;4.78;;;15.00;99.90;;;;;;4990721;28;20373;-66
2022/06/04 08:06:21;;;;;;;7.82;4.55;;;15.10;99.90;;;;;;4999598;28;20041;-66
2022/06/04 08:08:50;;;;;;;9.80;4.20;;;15.20;99.90;;;;;;5018386;28;20034;-66
2022/06/04 08:11:31;;;;;;;8.20;4.55;;;15.30;99.90;;;;;;5021690;28;20479;-66
2022/06/04 08:14:06;;;;;;;6.03;4.07;;;15.40;99.90;;;;;;5002443;28;20411;-66
2022/06/04 08:16:34;;;;;;;8.43;4.38;;;15.70;99.90;;;;;;4992684;28;20095;-66
2022/06/04 08:19:00;;;;;;;7.53;4.40;;;15.90;99.90;;;;;;5012384;28;20045;-66
2022/06/04 08:21:26;;;;;;;6.95;4.13;;;16.10;99.90;;;;;;5027002;28;20037;-66
2022/06/04 08:23:51;;;;;;;6.65;4.78;;;16.40;99.90;;;;;;4998492;28;20099;-66
2022/06/04 08:26:17;;;;;;;7.22;4.47;;;16.50;99.90;;;;;;5013449;28;20507;-66
2022/06/04 08:28:42;;;;;;;7.85;4.35;;;16.70;99.90;;;;;;5002506;28;20049;-66
2022/06/04 08:31:14;;;;;;;9.05;4.53;;;16.80;99.90;;;;;;4985825;28;20047;-66
2022/06/04 08:33:41;;;;;;;8.45;4.03;;;17.10;99.90;;;;;;5008956;28;20069;-66
2022/06/04 08:36:09;;;;;;;10.13;4.72;;;17.30;99.90;;;;;;4998909;28;20041;-66
2022/06/04 08:38:35;;;;;;;6.78;3.92;;;17.50;99.90;;;;;;4998880;28;20121;-66
2022/06/04 08:41:04;;;;;;;7.95;4.60;;;17.70;99.90;;;;;;5006359;28;20037;-66
2022/06/04 08:43:40;;;;;;;8.52;4.70;;;17.90;99.90;;;;;;5019929;28;20049;-66
2022/06/04 08:46:17;;;;;;;7.85;4.68;;;18.10;99.90;;;;;;5015922;28;20510;-66
2022/06/04 08:48:43;;;;;;;5.75;3.80;;;18.30;99.90;;;;;;5018928;28;20038;-66
2022/06/04 08:51:26;;;;;;;5.10;3.97;;;18.50;99.90;;;;;;4997427;28;20045;-66
2022/06/04 08:53:55;;;;;;;5.47;3.88;;;18.60;99.90;;;;;;5006180;28;20488;-66
2022/06/04 08:59:17;;;;;;;6.55;3.65;;;19.00;99.90;;;;;;5004012;28;20133;-67
2022/06/04 09:01:48;;;;;;;8.35;4.63;;;19.10;99.90;;;;;;4996382;28;20042;-65
2022/06/04 09:04:45;;;;;;;7.13;4.50;;;19.20;99.90;;;;;;5022613;28;20045;-64
2022/06/04 09:07:35;;;;;;;7.30;4.55;;;19.30;99.90;;;;;;4996714;28;20524;-64
2022/06/04 09:10:04;;;;;;;6.80;4.13;;;19.40;99.90;;;;;;5022178;28;20045;-66
2022/06/04 09:12:33;;;;;;;6.80;4.25;;;19.50;99.90;;;;;;5014002;28;20149;-64
2022/06/04 09:15:09;;;;;;;6.30;4.25;;;19.50;99.90;;;;;;5021956;28;20038;-64
2022/06/04 09:17:47;;;;;;;7.32;4.40;;;19.60;99.80;;;;;;5023321;28;20037;-64
2022/06/04 09:20:23;;;;;;;6.30;4.30;;;19.70;99.00;;;;;;5021016;28;20389;-64
2022/06/04 09:22:51;;;;;;;6.00;3.78;;;19.80;99.20;;;;;;5004291;28;20049;-69
2022/06/04 09:25:21;;;;;;;5.93;4.03;;;20.10;99.10;;;;;;5025375;28;20052;-64
2022/06/04 09:27:59;;;;;;;5.90;4.15;;;20.20;98.50;;;;;;5017919;28;20480;-70
2022/06/04 09:30:34;;;;;;;5.72;4.00;;;20.40;98.00;;;;;;5010750;28;20038;-65
2022/06/04 09:33:30;;;;;;;6.32;3.80;;;20.70;97.80;;;;;;4984165;28;20120;-65
2022/06/04 09:35:57;;;;;;;6.65;3.53;;;21.10;96.80;;;;;;5002630;28;20053;-67
2022/06/04 09:38:32;;;;;;;6.32;3.63;;;21.30;96.80;;;;;;5007855;28;20089;-65
2022/06/04 09:41:04;;;;;;;5.88;3.50;;;21.30;94.40;;;;;;5021511;28;20065;-66
2022/06/04 09:43:31;;;;;;;7.75;3.60;;;21.10;94.40;;;;;;5031197;28;20069;-65
2022/06/04 09:46:00;;;;;;;5.07;3.60;;;20.90;94.30;;;;;;5009834;28;20546;-64
2022/06/04 09:48:31;;;;;;;6.68;4.00;;;21.00;94.30;;;;;;5012026;28;20116;-67
2022/06/04 09:51:00;;;;;;;6.97;3.70;;;21.10;94.20;;;;;;5013818;28;20041;-65
2022/06/04 09:53:44;;;;;;;4.65;3.42;;;21.30;94.30;;;;;;5022526;28;20033;-65
2022/06/04 09:56:30;;;;;;;5.78;3.72;;;21.50;93.00;;;;;;4993437;28;20042;-65
2022/06/04 09:59:08;;;;;;;4.60;3.72;;;21.70;92.90;;;;;;5006501;28;20041;-65
2022/06/04 10:01:33;;;;;;;9.02;4.68;;;21.70;92.90;;;;;;5020012;28;20540;-64
2022/06/04 10:04:12;;;;;;;5.88;3.67;;;22.00;94.20;;;;;;5005662;28;20141;-68
2022/06/04 10:06:38;;;;;;;4.57;3.30;;;22.20;93.40;;;;;;5018494;28;20041;-65
2022/06/04 10:12:03;;;;;;;4.75;3.60;;;22.50;91.60;;;;;;5025940;28;20049;-68
2022/06/04 10:14:37;;;;;;;5.70;3.60;;;22.60;91.50;;;;;;5021212;28;20072;-68
2022/06/04 10:17:05;;;;;;;5.47;3.72;;;22.70;90.70;;;;;;5007883;28;20044;-68
2022/06/04 10:19:33;;;;;;;5.93;3.92;;;22.90;91.00;;;;;;5012349;28;20049;-65
2022/06/04 10:22:12;;;;;;;5.47;3.70;;;22.90;90.30;;;;;;5026135;28;20041;-67
2022/06/04 10:24:48;;;;;;;6.85;4.15;;;22.90;87.00;;;;;;4997402;28;20133;-66
2022/06/04 10:27:26;;;;;;;5.80;3.85;;;22.70;89.00;;;;;;5023313;28;20416;-73
2022/06/04 10:30:11;;;;;;;8.93;3.58;;;22.80;88.80;;;;;;5001705;28;20042;-65
2022/06/04 10:32:39;;;;;;;5.10;3.60;;;22.80;90.40;;;;;;5008453;28;20053;-65
2022/06/04 10:35:26;;;;;;;7.75;4.10;;;22.90;89.70;;;;;;5004318;28;20491;-65
2022/06/04 10:38:21;;;;;;;4.75;3.97;;;22.90;85.20;;;;;;5002653;28;20042;-65
2022/06/04 10:41:03;;;;;;;5.90;3.53;;;22.90;84.20;;;;;;4992319;28;20676;-65
2022/06/04 10:43:42;;;;;;;6.15;3.90;;;23.00;84.40;;;;;;5011147;28;20563;-65
2022/06/04 10:46:35;;;;;;;5.68;3.85;;;23.10;84.50;;;;;;5006355;28;20049;-67
2022/06/04 10:49:43;;;;;;;5.93;3.85;;;23.20;84.30;;;;;;4991764;28;20095;-65
2022/06/04 10:52:31;;;;;;;6.00;3.90;;;23.40;85.30;;;;;;5003558;28;20038;-65
2022/06/04 10:55:18;;;;;;;9.60;3.88;;;23.70;84.20;;;;;;5013816;28;20519;-65
2022/06/04 10:57:59;;;;;;;5.65;3.78;;;23.90;83.20;;;;;;5006999;28;20065;-70
2022/06/04 11:00:30;;;;;;;4.72;3.47;;;24.10;81.70;;;;;;5007428;28;20038;-65
2022/06/04 11:03:25;;;;;;;4.60;3.50;;;24.30;83.00;;;;;;4993032;28;20071;-67
2022/06/04 11:06:18;;;;;;;4.95;3.45;;;24.50;81.40;;;;;;5014024;28;20050;-66
2022/06/04 11:08:58;;;;;;;4.47;3.25;;;24.60;82.20;;;;;;4991700;28;20065;-69
2022/06/04 11:11:35;;;;;;;6.10;3.47;;;24.80;80.80;;;;;;4994149;28;20073;-65
2022/06/04 11:14:23;;;;;;;7.75;3.83;;;24.90;78.00;;;;;;5012050;28;20508;-66
2022/06/04 11:17:15;;;;;;;6.28;4.05;;;24.80;75.70;;;;;;4983446;28;20053;-65
2022/06/04 11:20:05;;;;;;;5.57;3.97;;;24.70;77.00;;;;;;5012953;28;20046;-65
2022/06/04 11:22:34;;;;;;;6.13;3.53;;;24.80;77.80;;;;;;5018636;28;20496;-65
2022/06/04 11:25:25;;;;;;;7.85;3.92;;;25.00;77.10;;;;;;5010968;28;20504;-65
2022/06/04 11:28:02;;;;;;;4.60;3.63;;;25.10;74.70;;;;;;5001373;28;20145;-65
2022/06/04 11:30:57;;;;;;;7.10;3.63;;;25.10;73.20;;;;;;5009290;28;20120;-65
2022/06/04 11:33:48;;;;;;;7.15;3.55;;;24.90;72.70;;;;;;5003674;28;20404;-66
2022/06/04 11:36:51;;;;;;;5.57;3.40;;;24.80;74.00;;;;;;5012411;28;20133;-66
2022/06/04 11:39:38;;;;;;;5.82;3.30;;;24.80;73.60;;;;;;5010492;28;20041;-67
2022/06/04 11:42:11;;;;;;;4.45;3.40;;;24.70;74.70;;;;;;5021065;28;20045;-65
2022/06/04 11:44:43;;;;;;;5.05;2.83;;;24.60;73.30;;;;;;5004467;28;20096;-68
2022/06/04 11:47:18;;;;;;;5.10;2.97;;;24.50;74.90;;;;;;4993896;28;20403;-65
2022/06/04 11:50:02;;;;;;;6.20;3.10;;;24.50;75.40;;;;;;4993410;28;20096;-65
2022/06/04 11:52:32;;;;;;;5.35;3.60;;;24.60;73.60;;;;;;5006197;28;20041;-66
2022/06/04 11:55:12;;;;;;;4.05;2.97;;;24.70;73.70;;;;;;5018587;28;20042;-66
2022/06/04 11:58:04;;;;;;;4.93;3.33;;;24.70;71.90;;;;;;4993224;28;20049;-65
2022/06/04 12:00:37;;;;;;;5.13;3.00;;;24.60;71.40;;;;;;5021392;28;20041;-67
2022/06/04 12:03:31;;;;;;;3.80;3.10;;;24.70;73.10;;;;;;5020923;28;20482;-67
2022/06/04 12:06:09;;;;;;;5.65;2.90;;;25.00;71.70;;;;;;4997353;28;20073;-67
2022/06/04 12:08:43;;;;;;;5.00;3.08;;;25.10;71.80;;;;;;5004862;28;20042;-67
2022/06/04 12:11:16;;;;;;;3.80;2.80;;;25.30;72.70;;;;;;5016979;28;20053;-67
2022/06/04 12:13:53;;;;;;;4.10;2.90;;;25.50;72.50;;;;;;5008718;28;20440;-67
2022/06/04 12:16:31;;;;;;;4.20;2.78;;;25.60;72.20;;;;;;4985955;28;20077;-67
2022/06/04 12:24:15;;;;;;;5.60;2.60;;;25.90;71.00;;;;;;5012007;28;20523;-67
2022/06/04 12:24:41;;;;;;;6.88;3.35;;;25.90;70.00;;;;;;4992042;28;20081;-67
2022/06/04 12:27:21;;;;;;;5.45;2.90;;;25.80;68.70;;;;;;5022312;28;20404;-67
2022/06/04 12:29:49;;;;;;;5.47;3.05;;;25.60;66.80;;;;;;5011089;28;20534;-66
2022/06/04 12:32:31;;;;;;;6.45;2.97;;;25.30;67.10;;;;;;5025651;28;20034;-66
2022/06/04 12:35:21;;;;;;;;;;;25.20;67.20;;;;;;5020345;28;20044;-67
2022/06/04 12:37:58;;;;;;;5.13;3.05;;;25.00;66.40;;;;;;5000036;28;19921;-67
2022/06/04 12:40:32;;;;;;;4.85;2.90;;;25.00;67.40;;;;;;5021005;28;20038;-67
2022/06/04 12:43:31;;;;;;;3.40;2.80;;;25.00;68.30;;;;;;5022192;28;20038;-67
2022/06/04 12:46:27;;;;;;;4.53;2.65;;;25.20;67.70;;;;;;4990722;28;20072;-67
2022/06/04 12:49:30;;;;;;;4.90;2.83;;;25.10;66.40;;;;;;4976590;28;20061;-66
2022/06/04 12:52:29;;;;;;;5.45;2.90;;;25.00;66.80;;;;;;4996652;28;20046;-66
2022/06/04 12:55:08;;;;;;;4.78;3.08;;;24.80;66.60;;;;;;5017343;28;20042;-66
2022/06/04 12:57:50;;;;;;;6.07;3.25;;;24.70;67.10;;;;;;5015297;28;20388;-67
2022/06/04 13:00:18;;;;;;;10.25;2.80;;;24.50;66.60;;;;;;5027309;28;20492;-66
2022/06/04 13:03:13;;;;;;;6.88;3.08;;;24.40;66.90;;;;;;5010216;28;20373;-66
2022/06/04 13:06:12;;;;;;;4.28;2.67;;;24.30;66.90;;;;;;5023843;28;20034;-66
2022/06/04 13:08:50;;;;;;;5.55;2.80;;;24.30;67.10;;;;;;4990645;28;20410;-66
2022/06/04 13:11:32;;;;;;;3.88;2.63;;;24.30;68.00;;;;;;5016628;28;20408;-66
2022/06/04 13:14:16;;;;;;;4.75;2.60;;;24.30;69.30;;;;;;5017421;28;20038;-66
2022/06/04 13:16:52;;;;;;;4.45;2.70;;;24.30;69.00;;;;;;4998063;28;20041;-66
2022/06/04 13:19:46;;;;;;;3.67;2.40;;;24.30;68.50;;;;;;5017098;28;20026;-66
2022/06/04 13:22:37;;;;;;;5.60;2.70;;;24.20;67.40;;;;;;4986230;28;20054;-67
2022/06/04 13:25:10;;;;;;;3.65;2.78;;;24.20;67.40;;;;;;4993931;28;20055;-66
2022/06/04 13:27:47;;;;;;;5.80;2.63;;;24.20;67.40;;;;;;4989773;28;20077;-66
2022/06/04 13:30:26;;;;;;;6.05;2.78;;;24.20;66.60;;;;;;5003886;28;20039;-66